Time;durP1;ratioP1;P1;durP2;ratioP2;P2;SDS_P1;SDS_P2;PMS_P1;PMS_P2;Temp;Humidity;BMP_temperature;BMP_pressure;BME280_temperature;BME280_humidity;BME280_pressure;Samples;Min_cycle;Max_cycle;Signal;HPM_P1;HPM_P2
2022/07/05 00:00:44;;;;;;;4.38;2.50;;;15.60;99.90;;;;;;4992252;28;20033;-68
2022/07/05 00:03:10;;;;;;;3.38;2.13;;;15.00;99.90;;;;;;5008763;28;20025;-68
2022/07/05 00:05:37;;;;;;;3.03;2.38;;;15.40;99.90;;;;;;5010177;28;20072;-67
2022/07/05 00:08:03;;;;;;;5.05;2.58;;;15.30;99.90;;;;;;5009979;28;20428;-68
2022/07/05 00:10:30;;;;;;;2.70;2.50;;;15.40;99.90;;;;;;5010163;28;20455;-68
2022/07/05 00:12:55;;;;;;;2.80;2.50;;;15.40;99.90;;;;;;5010141;28;20436;-68
2022/07/05 00:15:21;;;;;;;4.78;2.13;;;15.00;99.90;;;;;;4992509;28;20029;-67
2022/07/05 00:17:47;;;;;;;3.50;2.25;;;15.20;99.90;;;;;;5009596;28;20096;-68
2022/07/05 00:20:13;;;;;;;7.15;2.60;;;15.20;99.90;;;;;;5009706;28;20167;-67
2022/07/05 00:22:39;;;;;;;3.20;2.40;;;15.10;99.90;;;;;;5009826;28;20395;-67
2022/07/05 00:25:04;;;;;;;5.85;2.50;;;15.00;99.90;;;;;;5008934;28;20479;-68
2022/07/05 00:27:30;;;;;;;6.45;3.20;;;15.10;99.90;;;;;;5010067;28;20034;-68
2022/07/05 00:29:55;;;;;;;3.53;3.03;;;14.90;99.90;;;;;;5009569;28;20022;-68
2022/07/05 00:32:21;;;;;;;3.10;2.80;;;14.80;99.90;;;;;;5002006;28;20057;-67
2022/07/05 00:34:46;;;;;;;3.55;2.88;;;14.90;99.90;;;;;;5009389;28;20091;-68
2022/07/05 00:37:12;;;;;;;4.70;2.80;;;14.70;99.90;;;;;;5009367;28;20032;-68
2022/07/05 00:39:38;;;;;;;4.43;2.95;;;14.70;99.90;;;;;;5009308;28;20471;-68
2022/07/05 00:42:03;;;;;;;5.95;3.05;;;14.60;99.90;;;;;;5009104;28;20037;-68
2022/07/05 00:44:35;;;;;;;3.58;3.17;;;14.70;99.90;;;;;;5009844;28;20172;-67
2022/07/05 00:47:01;;;;;;;2.95;2.65;;;14.70;99.90;;;;;;5008885;28;20105;-67
2022/07/05 00:49:27;;;;;;;3.97;3.47;;;14.70;99.90;;;;;;5009776;28;20026;-68
2022/07/05 00:51:53;;;;;;;4.88;3.50;;;14.70;99.90;;;;;;5009236;28;20022;-68
2022/07/05 00:54:18;;;;;;;6.97;2.92;;;14.60;99.90;;;;;;5008441;28;20461;-67
2022/07/05 00:56:44;;;;;;;3.53;3.22;;;14.50;99.90;;;;;;5009139;28;20065;-67
2022/07/05 00:59:10;;;;;;;3.45;3.05;;;;;;;;;;4991545;28;20057;-67
2022/07/05 01:01:36;;;;;;;3.03;2.58;;;14.60;99.90;;;;;;5008863;28;20030;-67
2022/07/05 01:04:01;;;;;;;4.63;3.38;;;14.60;99.90;;;;;;5008773;28;20390;-67
2022/07/05 01:06:27;;;;;;;5.05;3.25;;;14.50;99.90;;;;;;5006647;28;20030;-67
2022/07/05 01:08:52;;;;;;;3.40;3.10;;;14.50;99.90;;;;;;5005445;28;20375;-67
2022/07/05 01:11:18;;;;;;;4.00;3.20;;;14.40;99.90;;;;;;5009015;28;20450;-67
2022/07/05 01:13:43;;;;;;;3.92;3.33;;;14.60;99.90;;;;;;5008939;28;20049;-69
2022/07/05 01:16:09;;;;;;;3.47;2.72;;;14.60;99.90;;;;;;5009033;28;20033;-67
2022/07/05 01:18:36;;;;;;;5.45;3.60;;;14.50;99.90;;;;;;5008564;28;20101;-67
2022/07/05 01:21:02;;;;;;;4.82;4.40;;;14.50;99.90;;;;;;5006903;28;20210;-68
2022/07/05 01:23:29;;;;;;;6.38;4.10;;;14.40;99.90;;;;;;4990422;28;20026;-68
2022/07/05 01:25:56;;;;;;;7.93;4.40;;;14.50;99.90;;;;;;5008684;28;20033;-68
2022/07/05 01:28:22;;;;;;;6.10;4.35;;;14.50;99.90;;;;;;5008382;28;20022;-68
2022/07/05 01:30:48;;;;;;;5.32;4.50;;;14.40;99.90;;;;;;5002927;28;20035;-68
2022/07/05 01:33:14;;;;;;;7.32;4.68;;;14.40;99.90;;;;;;5008147;28;20022;-67
2022/07/05 01:35:39;;;;;;;5.68;4.72;;;14.30;99.90;;;;;;5008571;28;20033;-67
2022/07/05 01:38:05;;;;;;;5.03;4.53;;;14.20;99.90;;;;;;5008213;28;20499;-67
2022/07/05 01:40:31;;;;;;;5.43;4.80;;;14.40;99.90;;;;;;5006335;28;20034;-68
2022/07/05 01:42:58;;;;;;;4.85;4.45;;;14.20;99.90;;;;;;5006697;28;20030;-67
2022/07/05 01:45:39;;;;;;;5.88;4.50;;;14.20;99.90;;;;;;5003845;28;20018;-67
2022/07/05 01:48:12;;;;;;;8.80;5.18;;;14.00;99.90;;;;;;5003585;28;20026;-67
2022/07/05 01:51:00;;;;;;;7.38;5.72;;;14.10;99.90;;;;;;5006019;28;20104;-67
2022/07/05 01:53:28;;;;;;;7.35;6.28;;;14.50;99.90;;;;;;5006782;28;20081;-67
2022/07/05 01:55:56;;;;;;;10.35;5.93;;;14.10;99.90;;;;;;5007855;28;20395;-67
2022/07/05 01:58:24;;;;;;;6.20;5.60;;;14.00;99.90;;;;;;5007375;28;20092;-67
2022/07/05 02:00:52;;;;;;;8.63;6.03;;;13.90;99.90;;;;;;5008302;28;20121;-67
2022/07/05 02:03:18;;;;;;;10.85;5.85;;;14.20;99.90;;;;;;5001815;28;20107;-68
2022/07/05 02:05:45;;;;;;;6.47;5.88;;;14.20;99.90;;;;;;5002619;28;20061;-68
2022/07/05 02:08:11;;;;;;;8.60;6.28;;;13.90;99.90;;;;;;4989846;28;20217;-67
2022/07/05 02:10:38;;;;;;;7.50;5.75;;;14.20;99.90;;;;;;5008262;28;20084;-68
2022/07/05 02:13:04;;;;;;;5.38;4.88;;;14.20;99.90;;;;;;5004126;28;20029;-67
2022/07/05 02:15:34;;;;;;;7.32;5.93;;;14.10;99.90;;;;;;5008291;28;20030;-67
2022/07/05 02:18:01;;;;;;;7.70;6.45;;;14.20;99.90;;;;;;5005903;28;20610;-67
2022/07/05 02:20:27;;;;;;;7.82;6.85;;;14.20;99.90;;;;;;5007441;28;20490;-68
2022/07/05 02:22:52;;;;;;;6.97;6.28;;;14.10;99.90;;;;;;5008559;28;20022;-67
2022/07/05 02:25:18;;;;;;;7.65;6.75;;;14.00;99.90;;;;;;5004045;28;20526;-67
2022/07/05 02:27:44;;;;;;;8.73;7.85;;;14.20;99.90;;;;;;5005324;28;20029;-68
2022/07/05 02:30:10;;;;;;;9.05;6.78;;;14.00;99.90;;;;;;5007903;28;20105;-67
2022/07/05 02:32:35;;;;;;;8.63;7.93;;;14.10;99.90;;;;;;5006056;28;20105;-68
2022/07/05 02:35:03;;;;;;;8.05;7.40;;;14.20;99.90;;;;;;5007025;28;20030;-67
2022/07/05 02:37:29;;;;;;;7.43;6.80;;;;;;;;;;5006381;28;20026;-67
2022/07/05 02:39:54;;;;;;;6.50;5.90;;;14.20;99.90;;;;;;5007545;28;20420;-67
2022/07/05 02:42:21;;;;;;;6.82;6.03;;;;;;;;;;5005628;28;20050;-68
2022/07/05 02:44:46;;;;;;;6.20;5.30;;;14.10;99.90;;;;;;5006255;28;20136;-67
2022/07/05 02:47:12;;;;;;;10.50;6.00;;;;;;;;;;5007286;28;20418;-67
2022/07/05 02:49:38;;;;;;;7.90;6.05;;;14.30;99.90;;;;;;5005932;28;20075;-68
2022/07/05 02:52:04;;;;;;;5.97;5.45;;;14.40;99.90;;;;;;5006827;28;20045;-68
2022/07/05 02:54:29;;;;;;;6.35;5.75;;;14.40;99.90;;;;;;5007781;28;20029;-67
2022/07/05 02:56:55;;;;;;;6.95;5.63;;;14.30;99.90;;;;;;5010509;28;20030;-68
2022/07/05 02:59:20;;;;;;;6.20;5.57;;;14.40;99.90;;;;;;5010811;28;20026;-67
2022/07/05 03:01:46;;;;;;;8.00;6.10;;;14.50;99.90;;;;;;5005841;28;20042;-68
2022/07/05 03:04:11;;;;;;;7.07;6.47;;;14.60;99.90;;;;;;5010624;28;20037;-68
2022/07/05 03:06:38;;;;;;;6.45;5.88;;;14.50;99.90;;;;;;5006861;28;20061;-68
2022/07/05 03:09:04;;;;;;;7.00;6.18;;;14.70;99.90;;;;;;5011288;28;20120;-67
2022/07/05 03:11:29;;;;;;;6.68;6.10;;;14.70;99.90;;;;;;5008867;28;20081;-68
2022/07/05 03:13:55;;;;;;;6.85;6.25;;;14.70;99.90;;;;;;5010349;28;20088;-67
2022/07/05 03:16:23;;;;;;;7.15;6.53;;;14.40;99.90;;;;;;5010598;28;20424;-67
2022/07/05 03:18:49;;;;;;;6.95;6.35;;;14.70;99.90;;;;;;5010224;28;20402;-68
2022/07/05 03:21:14;;;;;;;7.05;5.63;;;14.80;99.90;;;;;;5010683;28;20125;-67
2022/07/05 03:23:40;;;;;;;6.85;6.18;;;14.90;99.90;;;;;;5010835;28;20554;-68
2022/07/05 03:26:05;;;;;;;6.72;5.78;;;15.00;99.90;;;;;;5010836;28;20038;-68
2022/07/05 03:28:31;;;;;;;8.35;7.55;;;14.60;99.90;;;;;;5011213;28;20030;-68
2022/07/05 03:30:57;;;;;;;7.70;6.95;;;14.80;99.90;;;;;;5010422;28;20398;-67
2022/07/05 03:33:23;;;;;;;8.50;7.60;;;15.10;99.90;;;;;;5007718;28;20029;-68
2022/07/05 03:35:48;;;;;;;9.88;7.70;;;14.80;99.90;;;;;;5010506;28;20030;-68
2022/07/05 03:38:14;;;;;;;7.88;6.93;;;14.60;99.90;;;;;;5010532;28;20032;-68
2022/07/05 03:40:39;;;;;;;8.75;7.68;;;14.40;99.90;;;;;;5010712;28;20063;-68
2022/07/05 03:43:08;;;;;;;9.13;8.23;;;14.60;99.90;;;;;;5010346;28;20118;-68
2022/07/05 03:45:33;;;;;;;8.55;7.70;;;14.70;99.90;;;;;;5010145;28;20061;-68
2022/07/05 03:48:00;;;;;;;9.20;7.63;;;14.70;99.90;;;;;;5009928;28;20050;-68
2022/07/05 03:50:27;;;;;;;8.68;7.78;;;14.70;99.90;;;;;;5009166;28;20041;-67
2022/07/05 03:52:52;;;;;;;9.15;8.25;;;15.00;99.90;;;;;;5010031;28;20021;-68
2022/07/05 03:55:18;;;;;;;9.57;8.68;;;14.80;99.90;;;;;;5010225;28;20485;-68
2022/07/05 03:57:44;;;;;;;10.82;9.73;;;14.90;99.90;;;;;;5009688;28;20048;-67
2022/07/05 04:00:10;;;;;;;9.60;8.57;;;14.50;99.90;;;;;;5004980;28;20472;-68
2022/07/05 04:02:36;;;;;;;11.95;9.35;;;14.50;99.90;;;;;;5009486;28;20378;-68
2022/07/05 04:05:01;;;;;;;10.50;8.25;;;14.90;99.90;;;;;;5005745;28;20019;-68
2022/07/05 04:07:27;;;;;;;8.55;7.75;;;15.90;99.90;;;;;;5009822;28;20125;-68
2022/07/05 04:09:52;;;;;;;10.50;8.27;;;14.70;99.90;;;;;;5009609;28;20093;-68
2022/07/05 04:12:18;;;;;;;7.63;6.93;;;14.90;99.90;;;;;;5010140;28;20083;-67
2022/07/05 04:14:43;;;;;;;10.10;8.63;;;14.90;99.90;;;;;;5009898;28;20021;-67
2022/07/05 04:17:09;;;;;;;8.57;7.78;;;15.00;99.90;;;;;;5009159;28;20025;-68
2022/07/05 04:19:34;;;;;;;9.15;8.25;;;15.00;99.90;;;;;;5009602;28;20042;-68
2022/07/05 04:22:00;;;;;;;8.98;8.05;;;15.10;99.90;;;;;;5009183;28;20037;-68
2022/07/05 04:24:26;;;;;;;11.57;8.23;;;15.10;99.90;;;;;;5010100;28;20026;-68
2022/07/05 04:26:51;;;;;;;10.68;9.18;;;15.00;99.90;;;;;;5010064;28;20040;-68
2022/07/05 04:29:17;;;;;;;9.82;8.82;;;15.40;99.90;;;;;;5009579;28;20048;-67
2022/07/05 04:31:42;;;;;;;9.70;8.55;;;15.20;99.90;;;;;;5007219;28;20022;-68
2022/07/05 04:34:08;;;;;;;10.18;9.10;;;15.40;99.90;;;;;;5009496;28;20109;-68
2022/07/05 04:36:34;;;;;;;9.57;8.48;;;15.40;99.90;;;;;;5008665;28;20391;-68
2022/07/05 04:38:59;;;;;;;9.43;8.60;;;15.30;99.90;;;;;;5007928;28;20080;-68
2022/07/05 04:41:25;;;;;;;11.23;9.48;;;15.50;99.90;;;;;;5007933;28;20092;-68
2022/07/05 04:43:50;;;;;;;10.05;9.18;;;15.40;99.90;;;;;;5006859;28;20033;-68
2022/07/05 04:46:16;;;;;;;10.25;9.35;;;15.50;99.90;;;;;;5009174;28;20032;-68
2022/07/05 04:48:42;;;;;;;10.45;9.43;;;15.40;99.90;;;;;;5008550;28;20022;-67
2022/07/05 04:51:07;;;;;;;13.38;11.07;;;15.50;99.90;;;;;;5009256;28;20026;-68
2022/07/05 04:53:33;;;;;;;11.63;10.48;;;15.40;99.90;;;;;;5007576;28;20026;-68
2022/07/05 04:55:58;;;;;;;11.10;9.93;;;15.70;99.90;;;;;;5008969;28;20482;-68
2022/07/05 04:58:24;;;;;;;12.20;10.13;;;15.70;99.90;;;;;;5005610;28;20368;-68
2022/07/05 05:00:49;;;;;;;13.15;11.77;;;15.80;99.90;;;;;;5008536;28;20042;-68
2022/07/05 05:03:15;;;;;;;13.85;10.68;;;15.70;99.90;;;;;;5005890;28;20038;-67
2022/07/05 05:05:40;;;;;;;12.65;10.95;;;15.80;99.90;;;;;;5009311;28;20474;-68
2022/07/05 05:08:06;;;;;;;11.60;10.43;;;16.00;99.90;;;;;;5007533;28;20509;-68
2022/07/05 05:10:32;;;;;;;11.88;10.68;;;15.90;99.90;;;;;;5009167;28;20026;-68
2022/07/05 05:12:58;;;;;;;12.23;11.05;;;16.10;99.90;;;;;;5002554;28;20463;-68
2022/07/05 05:15:23;;;;;;;12.75;11.52;;;18.60;99.90;;;;;;5004031;28;20057;-68
2022/07/05 05:17:49;;;;;;;12.02;10.65;;;17.30;99.90;;;;;;5007130;28;20479;-68
2022/07/05 05:20:16;;;;;;;15.43;13.68;;;17.40;99.90;;;;;;5008469;28;20045;-68
2022/07/05 05:22:42;;;;;;;19.05;13.77;;;16.30;99.90;;;;;;5008763;28;20105;-68
2022/07/05 05:25:09;;;;;;;15.38;13.60;;;17.40;99.90;;;;;;5005466;28;20121;-68
2022/07/05 05:27:39;;;;;;;17.83;14.20;;;16.50;99.90;;;;;;5008937;28;20513;-68
2022/07/05 05:30:05;;;;;;;14.60;13.07;;;16.30;99.90;;;;;;5006711;28;20109;-68
2022/07/05 05:32:31;;;;;;;14.88;13.38;;;16.60;99.90;;;;;;5006700;28;20297;-68
2022/07/05 05:34:56;;;;;;;16.70;14.98;;;16.60;99.90;;;;;;5008487;28;20088;-68
2022/07/05 05:37:22;;;;;;;17.08;15.32;;;16.80;99.90;;;;;;5008515;28;20084;-68
2022/07/05 05:39:47;;;;;;;20.33;15.38;;;16.80;99.90;;;;;;5006620;28;20030;-68
2022/07/05 05:42:13;;;;;;;16.95;15.15;;;16.90;99.90;;;;;;5006655;28;20056;-68
2022/07/05 05:44:38;;;;;;;16.67;14.90;;;17.00;99.90;;;;;;5008005;28;20674;-68
2022/07/05 05:47:04;;;;;;;18.30;16.35;;;17.00;99.90;;;;;;5007336;28;20030;-68
2022/07/05 05:49:29;;;;;;;20.85;15.98;;;17.10;99.90;;;;;;5008733;28;20036;-68
2022/07/05 05:51:55;;;;;;;17.08;15.27;;;17.20;99.90;;;;;;5008361;28;20030;-68
2022/07/05 05:54:20;;;;;;;18.52;16.23;;;17.20;99.90;;;;;;5008226;28;20026;-68
2022/07/05 05:56:46;;;;;;;17.10;15.13;;;17.30;99.90;;;;;;5008618;28;20044;-68
2022/07/05 05:59:11;;;;;;;18.42;14.70;;;18.10;99.90;;;;;;5007791;28;20052;-68
2022/07/05 06:01:37;;;;;;;15.60;13.57;;;17.50;99.90;;;;;;5003841;28;20038;-68
2022/07/05 06:04:02;;;;;;;17.90;16.13;;;17.40;99.90;;;;;;5008189;28;20034;-68
2022/07/05 06:06:28;;;;;;;17.90;16.10;;;17.50;99.90;;;;;;4990654;28;20041;-68
2022/07/05 06:08:53;;;;;;;14.55;13.07;;;17.60;99.90;;;;;;5008449;28;20037;-68
2022/07/05 06:11:19;;;;;;;17.40;14.95;;;17.50;99.90;;;;;;5007980;28;20034;-68
2022/07/05 06:13:44;;;;;;;14.73;13.23;;;17.50;99.90;;;;;;5007549;28;20026;-68
2022/07/05 06:16:10;;;;;;;14.65;13.18;;;17.70;99.90;;;;;;5001659;28;20104;-68
2022/07/05 06:18:36;;;;;;;16.42;13.82;;;17.70;99.90;;;;;;5007772;28;20056;-68
2022/07/05 06:21:01;;;;;;;13.93;12.57;;;17.80;99.90;;;;;;5008374;28;20111;-68
2022/07/05 06:23:27;;;;;;;14.63;12.63;;;17.80;99.90;;;;;;5008356;28;20040;-68
2022/07/05 06:25:53;;;;;;;13.07;11.77;;;17.90;99.90;;;;;;5008039;28;20040;-68
2022/07/05 06:28:18;;;;;;;13.68;12.30;;;17.90;99.90;;;;;;5004092;28;20030;-68
2022/07/05 06:30:44;;;;;;;15.23;13.70;;;18.00;99.90;;;;;;5008431;28;20100;-68
2022/07/05 06:33:10;;;;;;;14.15;12.75;;;16.50;99.90;;;;;;5009826;28;20018;-68
2022/07/05 06:35:35;;;;;;;17.42;11.48;;;18.00;99.90;;;;;;5011743;28;20037;-68
2022/07/05 06:38:03;;;;;;;10.65;9.65;;;18.00;99.90;;;;;;5011921;28;20037;-68
2022/07/05 06:40:31;;;;;;;13.73;12.18;;;17.90;99.90;;;;;;4991743;28;20046;-70
2022/07/05 06:42:58;;;;;;;11.68;10.55;;;18.00;99.90;;;;;;5011129;28;20076;-68
2022/07/05 06:45:25;;;;;;;11.13;10.02;;;17.90;99.90;;;;;;5011364;28;20533;-68
2022/07/05 06:48:02;;;;;;;13.07;10.85;;;17.90;99.90;;;;;;5009590;28;20100;-68
2022/07/05 06:50:29;;;;;;;13.45;12.25;;;18.60;99.90;;;;;;5011608;28;20427;-68
2022/07/05 06:52:55;;;;;;;13.82;11.63;;;17.70;99.90;;;;;;5011283;28;20033;-68
2022/07/05 06:55:21;;;;;;;12.23;11.02;;;17.90;99.90;;;;;;5011170;28;20037;-68
2022/07/05 06:57:47;;;;;;;14.50;11.57;;;17.80;99.90;;;;;;5006448;28;20041;-71
2022/07/05 07:00:13;;;;;;;11.93;10.38;;;17.90;99.90;;;;;;5007097;28;20017;-71
2022/07/05 07:02:39;;;;;;;12.32;10.18;;;18.00;99.90;;;;;;5010975;28;20030;-71
2022/07/05 07:05:05;;;;;;;10.48;9.55;;;18.20;99.90;;;;;;5010482;28;20419;-71
2022/07/05 07:10:16;;;;;;;10.25;9.23;;;18.10;99.90;;;;;;5009463;28;20083;-71
2022/07/05 07:12:41;;;;;;;9.38;8.40;;;18.10;99.90;;;;;;5010503;28;20117;-71
2022/07/05 07:15:07;;;;;;;8.73;7.32;;;18.20;99.90;;;;;;4992795;28;20018;-71
2022/07/05 07:17:33;;;;;;;11.05;8.05;;;18.40;99.90;;;;;;5010643;28;20030;-71
2022/07/05 07:19:59;;;;;;;6.93;6.22;;;18.50;99.90;;;;;;5009717;28;20181;-71
2022/07/05 07:22:25;;;;;;;8.68;6.63;;;18.60;99.90;;;;;;5010551;28;20033;-71
2022/07/05 07:24:50;;;;;;;6.55;5.85;;;18.60;99.90;;;;;;5009466;28;20029;-71
2022/07/05 07:27:16;;;;;;;9.30;7.03;;;18.70;99.90;;;;;;5008651;28;20033;-71
2022/07/05 07:29:42;;;;;;;7.40;6.28;;;18.60;99.90;;;;;;5010610;28;20387;-71
2022/07/05 07:32:09;;;;;;;8.88;7.15;;;19.60;99.90;;;;;;5007169;28;20061;-71
2022/07/05 07:34:36;;;;;;;8.90;7.95;;;18.70;99.90;;;;;;5009962;28;20041;-71
2022/07/05 07:37:02;;;;;;;9.60;7.43;;;18.90;99.70;;;;;;5010085;28;20025;-71
2022/07/05 07:39:28;;;;;;;8.98;8.18;;;19.00;99.50;;;;;;5009652;28;20030;-70
2022/07/05 07:41:54;;;;;;;11.07;8.98;;;19.20;99.20;;;;;;5008927;28;20042;-71
2022/07/05 07:44:19;;;;;;;8.10;7.30;;;19.40;99.00;;;;;;5009506;28;20076;-70
2022/07/05 07:46:46;;;;;;;7.30;6.63;;;20.50;98.80;;;;;;5003959;28;20432;-71
2022/07/05 07:49:12;;;;;;;9.77;7.45;;;20.20;98.50;;;;;;5005011;28;20032;-71
2022/07/05 07:51:38;;;;;;;8.88;8.10;;;20.00;97.80;;;;;;5009807;28;20535;-71
2022/07/05 07:54:04;;;;;;;9.68;7.10;;;20.20;97.60;;;;;;5008911;28;20057;-71
2022/07/05 07:56:30;;;;;;;6.10;5.50;;;20.30;97.30;;;;;;5009735;28;20042;-70
2022/07/05 07:58:55;;;;;;;6.40;5.80;;;20.40;97.10;;;;;;5009772;28;20065;-71
2022/07/05 08:01:21;;;;;;;8.63;6.38;;;20.40;96.80;;;;;;5009474;28;20145;-70
2022/07/05 08:03:47;;;;;;;7.82;7.00;;;21.10;96.60;;;;;;5008096;28;20026;-70
2022/07/05 08:06:13;;;;;;;6.65;5.63;;;20.70;96.30;;;;;;5008373;28;20053;-70
2022/07/05 08:08:42;;;;;;;11.55;6.85;;;20.80;96.20;;;;;;5009129;28;20049;-70
2022/07/05 08:11:09;;;;;;;8.73;6.97;;;21.00;96.30;;;;;;5009418;28;20348;-70
2022/07/05 08:13:35;;;;;;;8.30;7.30;;;21.10;96.10;;;;;;5009208;28;20025;-71
2022/07/05 08:16:01;;;;;;;10.00;9.05;;;21.20;95.60;;;;;;5004595;28;20030;-70
2022/07/05 08:23:55;;;;;;;7.88;6.75;;;21.30;94.10;;;;;;5006181;28;20466;-70
2022/07/05 08:26:21;;;;;;;7.93;6.57;;;21.40;94.60;;;;;;5009308;28;20057;-70
2022/07/05 08:28:47;;;;;;;6.28;5.72;;;21.70;94.40;;;;;;5007707;28;20053;-70
2022/07/05 08:31:13;;;;;;;9.18;6.95;;;21.60;94.00;;;;;;5008925;28;20069;-71
2022/07/05 08:33:38;;;;;;;8.68;7.35;;;21.70;94.30;;;;;;5006984;28;20029;-70
2022/07/05 08:36:04;;;;;;;11.02;6.47;;;23.20;94.20;;;;;;5008890;28;20030;-70
2022/07/05 08:38:30;;;;;;;5.40;4.88;;;21.70;93.60;;;;;;5008026;28;20084;-70
2022/07/05 08:40:56;;;;;;;6.75;6.03;;;21.90;93.80;;;;;;5004660;28;20041;-70
2022/07/05 08:43:23;;;;;;;8.18;4.85;;;21.80;93.70;;;;;;5008941;28;20077;-70
2022/07/05 08:45:50;;;;;;;6.90;5.47;;;23.30;93.90;;;;;;5004915;28;20033;-70
2022/07/05 08:48:20;;;;;;;8.20;5.85;;;22.10;93.40;;;;;;5008902;28;20030;-70
2022/07/05 08:50:48;;;;;;;5.93;4.97;;;23.20;93.60;;;;;;5008659;28;20018;-70
2022/07/05 08:53:15;;;;;;;9.45;4.35;;;22.70;93.10;;;;;;5008252;28;20428;-70
2022/07/05 08:55:40;;;;;;;6.60;5.05;;;23.20;92.60;;;;;;5008667;28;20049;-70
2022/07/05 08:58:06;;;;;;;7.97;7.20;;;22.70;91.90;;;;;;5008354;28;20101;-70
2022/07/05 09:00:32;;;;;;;8.90;7.45;;;22.70;91.90;;;;;;5009227;28;20340;-70
2022/07/05 09:02:58;;;;;;;6.82;4.97;;;22.40;92.30;;;;;;5008179;28;20073;-70
2022/07/05 09:05:25;;;;;;;7.53;4.68;;;22.40;92.50;;;;;;5008884;28;20367;-70
2022/07/05 09:08:00;;;;;;;3.75;3.28;;;22.10;92.40;;;;;;5008226;28;20037;-71
2022/07/05 09:10:28;;;;;;;3.78;3.15;;;22.00;91.60;;;;;;5008872;28;20030;-71
2022/07/05 09:12:55;;;;;;;4.32;3.72;;;23.30;92.60;;;;;;5008812;28;20044;-71
2022/07/05 09:15:21;;;;;;;7.93;4.20;;;22.20;91.90;;;;;;5003250;28;20022;-70
2022/07/05 09:17:46;;;;;;;5.15;3.88;;;22.10;91.50;;;;;;5008691;28;20317;-71
2022/07/05 09:20:14;;;;;;;5.07;3.25;;;22.40;91.30;;;;;;5007556;28;20136;-71
2022/07/05 09:22:53;;;;;;;4.18;3.28;;;22.40;91.10;;;;;;5008575;28;20049;-71
2022/07/05 09:25:27;;;;;;;4.53;4.03;;;22.60;90.30;;;;;;5007939;28;20034;-71
2022/07/05 09:27:57;;;;;;;5.32;4.70;;;22.40;89.90;;;;;;5008235;28;20098;-70
2022/07/05 09:30:31;;;;;;;5.43;4.88;;;22.40;90.70;;;;;;5007857;28;20018;-71
2022/07/05 09:33:08;;;;;;;5.43;4.00;;;22.20;90.90;;;;;;5006578;28;20029;-71
2022/07/05 09:35:36;;;;;;;4.43;4.03;;;22.10;91.30;;;;;;5007825;28;20111;-70
2022/07/05 09:38:03;;;;;;;5.13;3.85;;;21.90;91.10;;;;;;5007900;28;20029;-71
2022/07/05 09:40:33;;;;;;;6.82;5.75;;;20.10;91.00;;;;;;5007837;28;20030;-70
2022/07/05 09:43:15;;;;;;;9.85;7.13;;;21.50;90.70;;;;;;5007930;28;20033;-71
2022/07/05 09:45:59;;;;;;;10.68;6.90;;;21.30;92.20;;;;;;5003839;28;20022;-71
2022/07/05 09:48:27;;;;;;;8.68;7.88;;;21.20;92.40;;;;;;5008183;28;20101;-70
2022/07/05 09:51:06;;;;;;;8.23;7.43;;;21.20;92.50;;;;;;5007089;28;20025;-71
2022/07/05 09:53:49;;;;;;;8.05;7.25;;;21.30;92.80;;;;;;5006491;28;20172;-71
2022/07/05 09:56:15;;;;;;;7.78;6.57;;;21.30;92.90;;;;;;5007679;28;20343;-71
2022/07/05 09:58:41;;;;;;;7.13;6.07;;;21.40;92.40;;;;;;5007716;28;20640;-71
2022/07/05 10:01:28;;;;;;;7.03;6.22;;;21.60;92.40;;;;;;5007226;28;20032;-71
2022/07/05 10:03:56;;;;;;;6.25;5.60;;;21.90;91.70;;;;;;5003577;28;20033;-69
2022/07/05 10:06:29;;;;;;;6.45;5.80;;;22.10;92.00;;;;;;5009318;28;20028;-69
2022/07/05 10:08:55;;;;;;;8.02;6.13;;;23.10;92.60;;;;;;5008543;28;20160;-69
2022/07/05 10:11:22;;;;;;;8.73;5.75;;;22.40;91.90;;;;;;5011539;28;20574;-69
2022/07/05 10:13:49;;;;;;;5.93;4.10;;;22.60;91.30;;;;;;5011488;28;20040;-70
2022/07/05 10:16:21;;;;;;;5.95;4.53;;;22.90;91.20;;;;;;5008075;28;20418;-70
2022/07/05 10:18:51;;;;;;;5.38;4.63;;;23.70;91.40;;;;;;5011051;28;20518;-69
2022/07/05 10:21:18;;;;;;;4.85;3.92;;;22.90;91.00;;;;;;5011462;28;20100;-70
2022/07/05 10:23:48;;;;;;;3.40;3.08;;;22.70;90.40;;;;;;5009684;28;20097;-70
2022/07/05 10:26:15;;;;;;;6.60;3.58;;;22.70;90.10;;;;;;5011865;28;20435;-70
2022/07/05 10:28:45;;;;;;;2.90;2.20;;;22.70;90.00;;;;;;5011614;28;20115;-70
2022/07/05 10:31:12;;;;;;;3.63;3.33;;;23.30;89.80;;;;;;5011788;28;20026;-70
2022/07/05 10:33:38;;;;;;;4.18;2.60;;;22.70;89.00;;;;;;5009934;28;20159;-70
2022/07/05 10:36:05;;;;;;;4.75;3.95;;;22.80;89.00;;;;;;5011345;28;20021;-70
2022/07/05 10:38:35;;;;;;;5.82;3.90;;;22.70;88.20;;;;;;5009447;28;20455;-71
2022/07/05 10:41:05;;;;;;;4.38;3.50;;;22.60;88.10;;;;;;5010394;28;20042;-69
2022/07/05 10:43:31;;;;;;;5.63;3.40;;;24.00;88.50;;;;;;5010694;28;20034;-70
2022/07/05 10:45:57;;;;;;;6.63;3.83;;;22.40;87.70;;;;;;5009434;28;20574;-70
2022/07/05 10:48:24;;;;;;;4.72;2.90;;;22.50;87.90;;;;;;5010495;28;20030;-72
2022/07/05 10:50:54;;;;;;;4.80;3.22;;;22.50;87.90;;;;;;5008695;28;20121;-70
2022/07/05 10:53:37;;;;;;;3.38;2.83;;;22.50;85.10;;;;;;5010907;28;20489;-69
2022/07/05 10:56:03;;;;;;;5.40;3.13;;;23.10;88.60;;;;;;5009602;28;20041;-70
2022/07/05 10:58:36;;;;;;;5.72;3.40;;;22.80;86.80;;;;;;5010413;28;20025;-69
2022/07/05 11:01:19;;;;;;;2.75;2.13;;;23.30;87.20;;;;;;5004924;28;20042;-70
2022/07/05 11:03:56;;;;;;;2.40;2.17;;;23.30;86.70;;;;;;5010217;28;20029;-69
2022/07/05 11:06:41;;;;;;;3.15;2.58;;;23.10;84.60;;;;;;5009765;28;20252;-70
2022/07/05 11:09:09;;;;;;;4.38;3.00;;;23.00;86.50;;;;;;5010413;28;20385;-70
2022/07/05 11:11:36;;;;;;;3.10;2.60;;;23.00;86.30;;;;;;5010439;28;20022;-70
2022/07/05 11:14:04;;;;;;;4.85;2.65;;;23.00;86.00;;;;;;5009348;28;20045;-69
2022/07/05 11:16:33;;;;;;;4.38;2.70;;;23.10;86.20;;;;;;5008915;28;20049;-69
2022/07/05 11:19:10;;;;;;;6.68;3.40;;;23.10;85.90;;;;;;5008283;28;20353;-69
2022/07/05 11:21:38;;;;;;;4.25;2.67;;;24.30;87.20;;;;;;5008857;28;20444;-69
2022/07/05 11:24:34;;;;;;;3.45;1.80;;;23.40;86.00;;;;;;5010595;28;20025;-70
2022/07/05 11:27:01;;;;;;;6.10;2.17;;;23.20;86.00;;;;;;5001507;28;20042;-70
2022/07/05 11:29:45;;;;;;;3.15;1.23;;;23.20;85.50;;;;;;5004976;28;20061;-70
2022/07/05 11:32:13;;;;;;;2.75;0.90;;;23.20;83.90;;;;;;5010011;28;20468;-70
2022/07/05 11:34:39;;;;;;;1.45;0.90;;;24.20;85.30;;;;;;5010452;28;20498;-70
2022/07/05 11:37:14;;;;;;;4.80;1.65;;;22.10;83.20;;;;;;5009619;28;20026;-69
2022/07/05 11:39:40;;;;;;;5.75;1.13;;;23.10;84.00;;;;;;5004164;28;20030;-71
2022/07/05 11:42:08;;;;;;;2.40;0.93;;;23.20;83.70;;;;;;5007617;28;20031;-71
2022/07/05 11:44:34;;;;;;;1.90;0.93;;;23.20;83.60;;;;;;5010164;28;20300;-71
2022/07/05 11:47:01;;;;;;;1.60;1.10;;;23.30;82.50;;;;;;5011094;28;20443;-71
2022/07/05 11:49:26;;;;;;;3.28;1.30;;;23.70;82.00;;;;;;4992595;28;20026;-71
2022/07/05 11:52:00;;;;;;;3.05;1.00;;;23.80;80.20;;;;;;5011961;28;20037;-70
2022/07/05 11:54:27;;;;;;;1.50;0.90;;;23.90;80.50;;;;;;5010556;28;20037;-70
2022/07/05 11:56:53;;;;;;;4.07;0.88;;;23.40;80.10;;;;;;5010237;28;20156;-71
2022/07/05 11:59:20;;;;;;;1.10;0.70;;;23.40;79.60;;;;;;4992710;28;20117;-71
2022/07/05 12:01:46;;;;;;;3.30;0.50;;;23.40;79.80;;;;;;5009683;28;20125;-71
2022/07/05 12:04:20;;;;;;;4.03;0.90;;;24.00;80.10;;;;;;5010067;28;20053;-70
2022/07/05 12:06:48;;;;;;;2.22;0.82;;;23.40;78.90;;;;;;5009825;28;20060;-71
2022/07/05 12:09:14;;;;;;;2.50;0.75;;;23.40;78.20;;;;;;5010039;28;20022;-71
2022/07/05 12:14:24;;;;;;;1.60;0.65;;;23.10;76.20;;;;;;5009652;28;20036;-71
2022/07/05 12:17:10;;;;;;;2.65;0.60;;;23.60;78.00;;;;;;5009889;28;20092;-70
2022/07/05 12:19:35;;;;;;;2.30;0.80;;;23.80;77.50;;;;;;4992026;28;20049;-71
2022/07/05 12:22:01;;;;;;;1.42;0.70;;;24.70;77.80;;;;;;5009706;28;20038;-71
2022/07/05 12:24:26;;;;;;;2.08;0.60;;;23.60;76.90;;;;;;5009954;28;20036;-71
2022/07/05 12:26:52;;;;;;;0.88;0.52;;;24.50;76.90;;;;;;4991749;28;20113;-72
2022/07/05 12:29:18;;;;;;;1.40;0.70;;;24.20;76.70;;;;;;5008981;28;20474;-71
2022/07/05 12:32:02;;;;;;;3.72;0.80;;;23.60;75.90;;;;;;5009579;28;20037;-71
2022/07/05 12:34:28;;;;;;;1.35;0.50;;;23.50;76.50;;;;;;5010168;28;20163;-71
2022/07/05 12:36:53;;;;;;;1.50;0.40;;;23.80;75.90;;;;;;5009512;28;20959;-71
2022/07/05 12:39:19;;;;;;;1.20;0.77;;;24.90;75.50;;;;;;5009577;28;20053;-71
2022/07/05 12:41:45;;;;;;;2.47;0.77;;;25.00;75.00;;;;;;5009031;28;20061;-71
2022/07/05 12:44:10;;;;;;;1.60;0.68;;;23.70;74.50;;;;;;5008551;28;20100;-71
2022/07/05 12:46:37;;;;;;;4.22;0.70;;;23.80;74.80;;;;;;5009480;28;20447;-71
2022/07/05 12:49:02;;;;;;;1.55;0.52;;;23.80;73.90;;;;;;4991368;28;20018;-71
2022/07/05 12:51:32;;;;;;;2.38;0.63;;;23.80;74.20;;;;;;4992168;28;20100;-71
2022/07/05 12:59:31;;;;;;;4.07;0.60;;;23.70;75.80;;;;;;5009240;28;20029;-71